Estación Meteorológica Peña el Pijo (Robertgarden) [ 11/24/17 15:40:40 CET ]

Fecha Hora Presion(HPa) Temp (°C) Humedad % Rocio (°C) Viento ( m/s) Direccion Lluvia 1Hora(mm) Lluvia 24H(mm) LLuvia Total(mm)
2017-Apr-12 01:01:44 1013.300 8.6 54 -0.2         1357.67
2017-Apr-12 02:01:38 1013.000 8.9 53 -0.2         1357.67
2017-Apr-12 03:01:47 1012.200 8.1 53 -0.7         1357.67
2017-Apr-12 04:01:54 1011.900 7.6 55 -0.9         1357.67
2017-Apr-12 05:01:42 1011.800 6.4 58 -1.3         1357.67
2017-Apr-12 06:01:39 1011.500 5.6 62 -1.1         1357.67
2017-Apr-12 07:01:27 1011.500 4.8 66 -1.2         1357.67
2017-Apr-12 08:01:46 1011.800 5.9 68 0.5         1357.67
2017-Apr-12 09:01:35 1012.300 10.9 62 3.9         1357.67
2017-Apr-12 10:01:43 1012.000 18.6 41 5.1         1357.67
2017-Apr-12 11:01:38 1012.300 23.5 29 4.4         1357.67
2017-Apr-12 12:01:19 1012.300 25.1 24 2.9         1357.67
2017-Apr-12 13:01:44 1012.000 25.3 21 1.3 3.2 SE     1357.67
2017-Apr-12 14:01:46 1011.500 25.5 22 2.1         1357.67
2017-Apr-12 15:01:46 1011.200 25.1 20 0.6         1357.67
2017-Apr-12 16:01:41 1010.500 27.1 19 1.3         1357.67
2017-Apr-12 17:01:51 1010.000 26.9 20 2.1         1357.67
2017-Apr-12 18:01:42 1010.000 23.6 23 1.1         1357.67
2017-Apr-12 19:01:43 1009.900 24.4 22 1.2         1357.67
2017-Apr-12 20:01:44 1010.100 20.9 25 -0.1         1357.67
2017-Apr-12 21:01:56 1010.500 17.9 37 2.9         1357.67
2017-Apr-12 22:01:59 1011.500 14.9 44 2.7         1357.67
2017-Apr-12 23:01:39 1011.900 11.9 51 2.1         1357.67

Temperatura Máxima:27°    Temperatura Mínima:
Presión Máxima:1013.300 Hpa    Presión Mínima:1009.900 Hpa


Volver